sensor_id;sensor_type;location;lat;lon;timestamp;temperature;humidity
19665;DHT22;9980;51.020;7.772;2023-04-24T00:01:00;13.20;98.20
19665;DHT22;9980;51.020;7.772;2023-04-24T00:03:27;13.20;98.20
19665;DHT22;9980;51.020;7.772;2023-04-24T00:05:54;13.20;98.20
19665;DHT22;9980;51.020;7.772;2023-04-24T00:08:21;13.20;98.30
19665;DHT22;9980;51.020;7.772;2023-04-24T00:10:48;13.20;98.30
19665;DHT22;9980;51.020;7.772;2023-04-24T00:13:15;13.20;98.30
19665;DHT22;9980;51.020;7.772;2023-04-24T00:15:41;13.20;98.40
19665;DHT22;9980;51.020;7.772;2023-04-24T00:18:07;13.20;98.30
19665;DHT22;9980;51.020;7.772;2023-04-24T00:20:34;13.20;98.40
19665;DHT22;9980;51.020;7.772;2023-04-24T00:23:01;13.20;98.40
19665;DHT22;9980;51.020;7.772;2023-04-24T00:25:27;13.20;98.40
19665;DHT22;9980;51.020;7.772;2023-04-24T00:27:53;13.30;98.40
19665;DHT22;9980;51.020;7.772;2023-04-24T00:30:20;13.30;98.40
19665;DHT22;9980;51.020;7.772;2023-04-24T00:32:47;13.30;98.40
19665;DHT22;9980;51.020;7.772;2023-04-24T00:35:13;13.30;98.40
19665;DHT22;9980;51.020;7.772;2023-04-24T00:37:41;13.30;98.50
19665;DHT22;9980;51.020;7.772;2023-04-24T00:40:08;13.30;98.50
19665;DHT22;9980;51.020;7.772;2023-04-24T00:42:35;13.30;98.50
19665;DHT22;9980;51.020;7.772;2023-04-24T00:45:04;13.30;98.50
19665;DHT22;9980;51.020;7.772;2023-04-24T00:47:33;13.30;98.60
19665;DHT22;9980;51.020;7.772;2023-04-24T00:50:02;13.30;98.70
19665;DHT22;9980;51.020;7.772;2023-04-24T00:52:29;13.30;98.70
19665;DHT22;9980;51.020;7.772;2023-04-24T00:54:57;13.30;98.80
19665;DHT22;9980;51.020;7.772;2023-04-24T00:57:23;13.30;98.80
19665;DHT22;9980;51.020;7.772;2023-04-24T00:59:51;13.30;98.70
19665;DHT22;9980;51.020;7.772;2023-04-24T01:02:18;13.30;98.70
19665;DHT22;9980;51.020;7.772;2023-04-24T01:04:45;13.30;98.80
19665;DHT22;9980;51.020;7.772;2023-04-24T01:07:12;13.30;98.80
19665;DHT22;9980;51.020;7.772;2023-04-24T01:09:40;13.30;98.80
19665;DHT22;9980;51.020;7.772;2023-04-24T01:12:10;13.30;98.90
19665;DHT22;9980;51.020;7.772;2023-04-24T01:14:37;13.30;98.90
19665;DHT22;9980;51.020;7.772;2023-04-24T01:17:04;13.30;99.00
19665;DHT22;9980;51.020;7.772;2023-04-24T01:19:30;13.30;99.00
19665;DHT22;9980;51.020;7.772;2023-04-24T01:21:58;13.30;99.10
19665;DHT22;9980;51.020;7.772;2023-04-24T01:24:29;13.30;99.20
19665;DHT22;9980;51.020;7.772;2023-04-24T01:26:55;13.30;99.20
19665;DHT22;9980;51.020;7.772;2023-04-24T01:29:22;13.30;99.20
19665;DHT22;9980;51.020;7.772;2023-04-24T01:31:50;13.30;99.30
19665;DHT22;9980;51.020;7.772;2023-04-24T01:34:16;13.30;99.30
19665;DHT22;9980;51.020;7.772;2023-04-24T01:36:43;13.30;99.30
19665;DHT22;9980;51.020;7.772;2023-04-24T01:39:12;13.30;99.40
19665;DHT22;9980;51.020;7.772;2023-04-24T01:41:39;13.30;99.40
19665;DHT22;9980;51.020;7.772;2023-04-24T01:44:05;13.30;99.40
19665;DHT22;9980;51.020;7.772;2023-04-24T01:46:31;13.30;99.40
19665;DHT22;9980;51.020;7.772;2023-04-24T01:49:01;13.30;99.50
19665;DHT22;9980;51.020;7.772;2023-04-24T01:51:27;13.30;99.50
19665;DHT22;9980;51.020;7.772;2023-04-24T01:53:56;13.30;99.50
19665;DHT22;9980;51.020;7.772;2023-04-24T01:56:22;13.30;99.60
19665;DHT22;9980;51.020;7.772;2023-04-24T01:58:50;13.30;99.70
19665;DHT22;9980;51.020;7.772;2023-04-24T02:01:19;13.30;99.80
19665;DHT22;9980;51.020;7.772;2023-04-24T02:03:47;13.30;99.80
19665;DHT22;9980;51.020;7.772;2023-04-24T02:06:13;13.30;99.80
19665;DHT22;9980;51.020;7.772;2023-04-24T02:08:40;13.20;99.80
19665;DHT22;9980;51.020;7.772;2023-04-24T02:11:08;13.30;99.90
19665;DHT22;9980;51.020;7.772;2023-04-24T02:13:35;13.30;99.90
19665;DHT22;9980;51.020;7.772;2023-04-24T02:16:02;13.30;99.90
19665;DHT22;9980;51.020;7.772;2023-04-24T02:18:29;13.20;99.90
19665;DHT22;9980;51.020;7.772;2023-04-24T02:20:56;13.20;99.90
19665;DHT22;9980;51.020;7.772;2023-04-24T02:23:22;13.20;99.90
19665;DHT22;9980;51.020;7.772;2023-04-24T02:25:49;13.20;99.90
19665;DHT22;9980;51.020;7.772;2023-04-24T02:28:16;13.20;99.90
19665;DHT22;9980;51.020;7.772;2023-04-24T02:30:43;13.20;99.90
19665;DHT22;9980;51.020;7.772;2023-04-24T02:33:09;13.20;99.90
19665;DHT22;9980;51.020;7.772;2023-04-24T02:35:35;13.20;99.90
19665;DHT22;9980;51.020;7.772;2023-04-24T02:38:02;13.20;99.90
19665;DHT22;9980;51.020;7.772;2023-04-24T02:40:29;13.20;99.90
19665;DHT22;9980;51.020;7.772;2023-04-24T02:42:55;13.20;99.90
19665;DHT22;9980;51.020;7.772;2023-04-24T02:45:23;13.20;99.90
19665;DHT22;9980;51.020;7.772;2023-04-24T02:47:49;13.10;99.90
19665;DHT22;9980;51.020;7.772;2023-04-24T02:50:16;13.10;99.80
19665;DHT22;9980;51.020;7.772;2023-04-24T02:52:42;13.10;99.80
19665;DHT22;9980;51.020;7.772;2023-04-24T02:55:09;13.00;99.70
19665;DHT22;9980;51.020;7.772;2023-04-24T02:57:35;13.00;99.70
19665;DHT22;9980;51.020;7.772;2023-04-24T03:00:02;12.90;99.70
19665;DHT22;9980;51.020;7.772;2023-04-24T03:02:29;12.90;99.70
19665;DHT22;9980;51.020;7.772;2023-04-24T03:04:55;12.90;99.80
19665;DHT22;9980;51.020;7.772;2023-04-24T03:07:23;12.80;99.80
19665;DHT22;9980;51.020;7.772;2023-04-24T03:09:49;12.80;99.70
19665;DHT22;9980;51.020;7.772;2023-04-24T03:12:16;12.80;99.80
19665;DHT22;9980;51.020;7.772;2023-04-24T03:14:44;12.80;99.80
19665;DHT22;9980;51.020;7.772;2023-04-24T03:17:10;12.70;99.80
19665;DHT22;9980;51.020;7.772;2023-04-24T03:19:36;12.70;99.80
19665;DHT22;9980;51.020;7.772;2023-04-24T03:22:08;12.70;99.70
19665;DHT22;9980;51.020;7.772;2023-04-24T03:24:36;12.70;99.70
19665;DHT22;9980;51.020;7.772;2023-04-24T03:27:02;12.60;99.70
19665;DHT22;9980;51.020;7.772;2023-04-24T03:29:45;12.60;99.60
19665;DHT22;9980;51.020;7.772;2023-04-24T03:32:12;12.60;99.60
19665;DHT22;9980;51.020;7.772;2023-04-24T03:34:39;12.60;99.60
19665;DHT22;9980;51.020;7.772;2023-04-24T03:37:07;12.50;99.60
19665;DHT22;9980;51.020;7.772;2023-04-24T03:39:36;12.50;99.60
19665;DHT22;9980;51.020;7.772;2023-04-24T03:42:03;12.50;99.60
19665;DHT22;9980;51.020;7.772;2023-04-24T03:44:41;12.50;99.60
19665;DHT22;9980;51.020;7.772;2023-04-24T03:47:07;12.50;99.60
19665;DHT22;9980;51.020;7.772;2023-04-24T03:49:35;12.40;99.60
19665;DHT22;9980;51.020;7.772;2023-04-24T03:52:01;12.40;99.80
19665;DHT22;9980;51.020;7.772;2023-04-24T03:54:28;12.40;99.90
19665;DHT22;9980;51.020;7.772;2023-04-24T03:56:55;12.40;99.50
19665;DHT22;9980;51.020;7.772;2023-04-24T03:59:23;12.40;99.30
19665;DHT22;9980;51.020;7.772;2023-04-24T04:02:03;12.30;99.40
19665;DHT22;9980;51.020;7.772;2023-04-24T04:04:29;12.30;99.30
19665;DHT22;9980;51.020;7.772;2023-04-24T04:06:56;12.20;99.30
19665;DHT22;9980;51.020;7.772;2023-04-24T04:09:24;12.20;99.20
19665;DHT22;9980;51.020;7.772;2023-04-24T04:11:50;12.20;99.30
19665;DHT22;9980;51.020;7.772;2023-04-24T04:14:16;12.20;99.20
19665;DHT22;9980;51.020;7.772;2023-04-24T04:16:46;12.10;99.20
19665;DHT22;9980;51.020;7.772;2023-04-24T04:19:13;12.10;99.10
19665;DHT22;9980;51.020;7.772;2023-04-24T04:21:39;12.10;98.90
19665;DHT22;9980;51.020;7.772;2023-04-24T04:24:17;12.10;99.20
19665;DHT22;9980;51.020;7.772;2023-04-24T04:26:45;12.00;98.70
19665;DHT22;9980;51.020;7.772;2023-04-24T04:29:19;12.00;98.80
19665;DHT22;9980;51.020;7.772;2023-04-24T04:31:49;12.00;98.70
19665;DHT22;9980;51.020;7.772;2023-04-24T04:34:15;11.90;98.80
19665;DHT22;9980;51.020;7.772;2023-04-24T04:36:42;11.90;98.90
19665;DHT22;9980;51.020;7.772;2023-04-24T04:39:25;11.90;98.90
19665;DHT22;9980;51.020;7.772;2023-04-24T04:42:07;11.90;98.90
19665;DHT22;9980;51.020;7.772;2023-04-24T04:44:38;11.90;98.80
19665;DHT22;9980;51.020;7.772;2023-04-24T04:47:07;11.80;98.70
19665;DHT22;9980;51.020;7.772;2023-04-24T04:49:37;11.80;98.70
19665;DHT22;9980;51.020;7.772;2023-04-24T04:52:09;11.80;98.70
19665;DHT22;9980;51.020;7.772;2023-04-24T04:54:36;11.80;98.60
19665;DHT22;9980;51.020;7.772;2023-04-24T04:57:02;11.80;98.60
19665;DHT22;9980;51.020;7.772;2023-04-24T04:59:30;11.70;98.50
19665;DHT22;9980;51.020;7.772;2023-04-24T05:02:02;11.70;98.60
19665;DHT22;9980;51.020;7.772;2023-04-24T05:04:29;11.70;98.50
19665;DHT22;9980;51.020;7.772;2023-04-24T05:06:56;11.70;98.70
19665;DHT22;9980;51.020;7.772;2023-04-24T05:09:24;11.70;98.60
19665;DHT22;9980;51.020;7.772;2023-04-24T05:11:56;11.60;98.60
19665;DHT22;9980;51.020;7.772;2023-04-24T05:14:24;11.70;98.80
19665;DHT22;9980;51.020;7.772;2023-04-24T05:16:51;11.60;98.70
19665;DHT22;9980;51.020;7.772;2023-04-24T05:19:20;11.60;98.60
19665;DHT22;9980;51.020;7.772;2023-04-24T05:21:46;11.60;98.60
19665;DHT22;9980;51.020;7.772;2023-04-24T05:24:12;11.60;98.60
19665;DHT22;9980;51.020;7.772;2023-04-24T05:26:53;11.60;98.50
19665;DHT22;9980;51.020;7.772;2023-04-24T05:29:24;11.60;98.60
19665;DHT22;9980;51.020;7.772;2023-04-24T05:31:53;11.60;98.70
19665;DHT22;9980;51.020;7.772;2023-04-24T05:34:19;11.60;98.50
19665;DHT22;9980;51.020;7.772;2023-04-24T05:36:49;11.60;98.60
19665;DHT22;9980;51.020;7.772;2023-04-24T05:39:17;11.60;98.50
19665;DHT22;9980;51.020;7.772;2023-04-24T05:41:43;11.60;98.70
19665;DHT22;9980;51.020;7.772;2023-04-24T05:44:10;11.60;98.60
19665;DHT22;9980;51.020;7.772;2023-04-24T05:46:36;11.60;98.70
19665;DHT22;9980;51.020;7.772;2023-04-24T05:49:03;11.60;98.80
19665;DHT22;9980;51.020;7.772;2023-04-24T05:51:31;11.70;98.80
19665;DHT22;9980;51.020;7.772;2023-04-24T05:54:00;11.70;98.90
19665;DHT22;9980;51.020;7.772;2023-04-24T05:56:27;11.70;99.00
19665;DHT22;9980;51.020;7.772;2023-04-24T05:58:53;11.80;98.90
19665;DHT22;9980;51.020;7.772;2023-04-24T06:01:20;11.80;98.70
19665;DHT22;9980;51.020;7.772;2023-04-24T06:03:53;11.80;98.80
19665;DHT22;9980;51.020;7.772;2023-04-24T06:06:20;11.90;98.70
19665;DHT22;9980;51.020;7.772;2023-04-24T06:08:46;11.90;98.40
19665;DHT22;9980;51.020;7.772;2023-04-24T06:11:13;11.90;98.50
19665;DHT22;9980;51.020;7.772;2023-04-24T06:13:40;11.90;98.40
19665;DHT22;9980;51.020;7.772;2023-04-24T06:16:32;11.90;98.40
19665;DHT22;9980;51.020;7.772;2023-04-24T06:19:04;11.90;98.40
19665;DHT22;9980;51.020;7.772;2023-04-24T06:21:31;11.90;98.40
19665;DHT22;9980;51.020;7.772;2023-04-24T06:23:57;11.80;98.40
19665;DHT22;9980;51.020;7.772;2023-04-24T06:26:24;11.90;98.60
19665;DHT22;9980;51.020;7.772;2023-04-24T06:28:52;11.90;98.60
19665;DHT22;9980;51.020;7.772;2023-04-24T06:31:20;11.90;98.60
19665;DHT22;9980;51.020;7.772;2023-04-24T06:33:46;11.90;98.50
19665;DHT22;9980;51.020;7.772;2023-04-24T06:36:14;11.90;98.50
19665;DHT22;9980;51.020;7.772;2023-04-24T06:38:40;12.00;98.60
19665;DHT22;9980;51.020;7.772;2023-04-24T06:41:06;12.00;98.70
19665;DHT22;9980;51.020;7.772;2023-04-24T06:43:33;12.00;98.60
19665;DHT22;9980;51.020;7.772;2023-04-24T06:46:00;12.10;98.50
19665;DHT22;9980;51.020;7.772;2023-04-24T06:48:26;12.10;98.60
19665;DHT22;9980;51.020;7.772;2023-04-24T06:50:52;12.10;98.70
19665;DHT22;9980;51.020;7.772;2023-04-24T06:53:18;12.20;98.80
19665;DHT22;9980;51.020;7.772;2023-04-24T06:55:45;12.20;99.00
19665;DHT22;9980;51.020;7.772;2023-04-24T06:58:12;12.20;99.10
19665;DHT22;9980;51.020;7.772;2023-04-24T07:00:38;12.30;99.10
19665;DHT22;9980;51.020;7.772;2023-04-24T07:03:04;12.30;98.70
19665;DHT22;9980;51.020;7.772;2023-04-24T07:05:33;12.40;98.70
19665;DHT22;9980;51.020;7.772;2023-04-24T07:08:01;12.40;98.50
19665;DHT22;9980;51.020;7.772;2023-04-24T07:10:28;12.40;98.50
19665;DHT22;9980;51.020;7.772;2023-04-24T07:12:55;12.40;98.30
19665;DHT22;9980;51.020;7.772;2023-04-24T07:15:24;12.50;98.20
19665;DHT22;9980;51.020;7.772;2023-04-24T07:17:50;12.40;98.40
19665;DHT22;9980;51.020;7.772;2023-04-24T07:20:16;12.50;98.50
19665;DHT22;9980;51.020;7.772;2023-04-24T07:22:43;12.50;98.70
19665;DHT22;9980;51.020;7.772;2023-04-24T07:25:09;12.50;98.70
19665;DHT22;9980;51.020;7.772;2023-04-24T07:27:35;12.50;98.90
19665;DHT22;9980;51.020;7.772;2023-04-24T07:30:05;12.60;99.10
19665;DHT22;9980;51.020;7.772;2023-04-24T07:32:33;12.60;99.30
19665;DHT22;9980;51.020;7.772;2023-04-24T07:34:59;12.70;99.20
19665;DHT22;9980;51.020;7.772;2023-04-24T07:37:25;12.70;99.10
19665;DHT22;9980;51.020;7.772;2023-04-24T07:39:52;12.70;99.50
19665;DHT22;9980;51.020;7.772;2023-04-24T07:42:18;12.70;99.00
19665;DHT22;9980;51.020;7.772;2023-04-24T07:44:44;12.80;99.00
19665;DHT22;9980;51.020;7.772;2023-04-24T07:47:12;12.80;99.00
19665;DHT22;9980;51.020;7.772;2023-04-24T07:49:41;12.80;99.30
19665;DHT22;9980;51.020;7.772;2023-04-24T07:52:08;12.70;98.90
19665;DHT22;9980;51.020;7.772;2023-04-24T07:54:34;12.70;98.90
19665;DHT22;9980;51.020;7.772;2023-04-24T07:57:02;12.70;98.90
19665;DHT22;9980;51.020;7.772;2023-04-24T07:59:29;12.70;99.00
19665;DHT22;9980;51.020;7.772;2023-04-24T08:01:55;12.60;99.20
19665;DHT22;9980;51.020;7.772;2023-04-24T08:04:22;12.60;99.40
19665;DHT22;9980;51.020;7.772;2023-04-24T08:06:48;12.60;99.30
19665;DHT22;9980;51.020;7.772;2023-04-24T08:09:15;12.60;99.30
19665;DHT22;9980;51.020;7.772;2023-04-24T08:11:41;12.60;99.20
19665;DHT22;9980;51.020;7.772;2023-04-24T08:14:07;12.60;99.10
19665;DHT22;9980;51.020;7.772;2023-04-24T08:16:34;12.50;99.00
19665;DHT22;9980;51.020;7.772;2023-04-24T08:19:00;12.50;99.00
19665;DHT22;9980;51.020;7.772;2023-04-24T08:21:27;12.50;99.00
19665;DHT22;9980;51.020;7.772;2023-04-24T08:23:53;12.50;99.10
19665;DHT22;9980;51.020;7.772;2023-04-24T08:26:20;12.40;99.20
19665;DHT22;9980;51.020;7.772;2023-04-24T08:28:46;12.40;99.10
19665;DHT22;9980;51.020;7.772;2023-04-24T08:31:12;12.40;99.40
19665;DHT22;9980;51.020;7.772;2023-04-24T08:33:38;12.30;99.20
19665;DHT22;9980;51.020;7.772;2023-04-24T08:36:07;12.30;99.30
19665;DHT22;9980;51.020;7.772;2023-04-24T08:38:34;12.30;99.10
19665;DHT22;9980;51.020;7.772;2023-04-24T08:41:01;12.30;99.20
19665;DHT22;9980;51.020;7.772;2023-04-24T08:43:27;12.20;99.20
19665;DHT22;9980;51.020;7.772;2023-04-24T08:45:58;12.20;99.20
19665;DHT22;9980;51.020;7.772;2023-04-24T08:48:25;12.20;99.20
19665;DHT22;9980;51.020;7.772;2023-04-24T08:50:58;12.10;99.20
19665;DHT22;9980;51.020;7.772;2023-04-24T08:53:26;12.10;99.20
19665;DHT22;9980;51.020;7.772;2023-04-24T08:55:54;12.00;98.90
19665;DHT22;9980;51.020;7.772;2023-04-24T08:58:25;12.00;98.80
19665;DHT22;9980;51.020;7.772;2023-04-24T09:00:57;11.90;98.70
19665;DHT22;9980;51.020;7.772;2023-04-24T09:03:27;11.80;98.60
19665;DHT22;9980;51.020;7.772;2023-04-24T09:05:55;11.80;98.70
19665;DHT22;9980;51.020;7.772;2023-04-24T09:08:24;11.60;98.60
19665;DHT22;9980;51.020;7.772;2023-04-24T09:10:51;11.60;98.60
19665;DHT22;9980;51.020;7.772;2023-04-24T09:13:21;11.50;98.80
19665;DHT22;9980;51.020;7.772;2023-04-24T09:15:48;11.50;98.90
19665;DHT22;9980;51.020;7.772;2023-04-24T09:18:14;11.50;99.00
19665;DHT22;9980;51.020;7.772;2023-04-24T09:21:01;11.40;99.30
19665;DHT22;9980;51.020;7.772;2023-04-24T09:23:32;11.40;99.10
19665;DHT22;9980;51.020;7.772;2023-04-24T09:26:00;11.40;99.10
19665;DHT22;9980;51.020;7.772;2023-04-24T09:28:31;11.40;99.00
19665;DHT22;9980;51.020;7.772;2023-04-24T09:31:13;11.30;98.90
19665;DHT22;9980;51.020;7.772;2023-04-24T09:33:55;11.30;99.10
19665;DHT22;9980;51.020;7.772;2023-04-24T09:36:29;11.20;98.90
19665;DHT22;9980;51.020;7.772;2023-04-24T09:39:00;11.20;98.90
19665;DHT22;9980;51.020;7.772;2023-04-24T09:41:28;11.10;98.80
19665;DHT22;9980;51.020;7.772;2023-04-24T09:44:10;11.10;99.00
19665;DHT22;9980;51.020;7.772;2023-04-24T09:46:38;11.10;99.20
19665;DHT22;9980;51.020;7.772;2023-04-24T09:49:21;11.00;99.20
19665;DHT22;9980;51.020;7.772;2023-04-24T09:51:50;11.00;99.50
19665;DHT22;9980;51.020;7.772;2023-04-24T09:54:21;10.90;99.40
19665;DHT22;9980;51.020;7.772;2023-04-24T09:56:50;10.90;99.80
19665;DHT22;9980;51.020;7.772;2023-04-24T09:59:18;10.90;99.70
19665;DHT22;9980;51.020;7.772;2023-04-24T10:01:46;10.90;99.80
19665;DHT22;9980;51.020;7.772;2023-04-24T10:04:25;10.90;99.90
19665;DHT22;9980;51.020;7.772;2023-04-24T10:06:55;10.90;99.90
19665;DHT22;9980;51.020;7.772;2023-04-24T10:09:25;10.90;99.90
19665;DHT22;9980;51.020;7.772;2023-04-24T10:11:54;10.90;99.90
19665;DHT22;9980;51.020;7.772;2023-04-24T10:14:22;10.90;99.90
19665;DHT22;9980;51.020;7.772;2023-04-24T10:16:53;10.90;99.90
19665;DHT22;9980;51.020;7.772;2023-04-24T10:19:20;10.90;99.90
19665;DHT22;9980;51.020;7.772;2023-04-24T10:21:47;10.90;99.90
19665;DHT22;9980;51.020;7.772;2023-04-24T10:24:15;10.90;99.90
19665;DHT22;9980;51.020;7.772;2023-04-24T10:26:44;10.90;99.90
19665;DHT22;9980;51.020;7.772;2023-04-24T10:29:13;10.90;99.90
19665;DHT22;9980;51.020;7.772;2023-04-24T10:31:41;10.90;99.90
19665;DHT22;9980;51.020;7.772;2023-04-24T10:34:09;10.90;99.90
19665;DHT22;9980;51.020;7.772;2023-04-24T10:36:41;10.90;99.90
19665;DHT22;9980;51.020;7.772;2023-04-24T10:39:13;11.00;99.90
19665;DHT22;9980;51.020;7.772;2023-04-24T10:41:41;11.00;99.90
19665;DHT22;9980;51.020;7.772;2023-04-24T10:44:09;11.00;99.90
19665;DHT22;9980;51.020;7.772;2023-04-24T10:46:38;11.00;99.90
19665;DHT22;9980;51.020;7.772;2023-04-24T10:49:07;11.10;99.90
19665;DHT22;9980;51.020;7.772;2023-04-24T10:51:53;11.10;99.90
19665;DHT22;9980;51.020;7.772;2023-04-24T10:59:49;11.30;99.90
19665;DHT22;9980;51.020;7.772;2023-04-24T11:02:17;11.30;99.90
19665;DHT22;9980;51.020;7.772;2023-04-24T11:04:44;11.40;99.90
19665;DHT22;9980;51.020;7.772;2023-04-24T11:07:11;11.40;99.90
19665;DHT22;9980;51.020;7.772;2023-04-24T11:09:38;11.40;99.90
19665;DHT22;9980;51.020;7.772;2023-04-24T11:12:11;11.50;99.90
19665;DHT22;9980;51.020;7.772;2023-04-24T11:14:59;11.50;99.90
19665;DHT22;9980;51.020;7.772;2023-04-24T11:17:37;11.60;99.90
19665;DHT22;9980;51.020;7.772;2023-04-24T11:20:15;11.60;99.90
19665;DHT22;9980;51.020;7.772;2023-04-24T11:22:54;11.70;99.90
19665;DHT22;9980;51.020;7.772;2023-04-24T11:25:22;11.70;99.90
19665;DHT22;9980;51.020;7.772;2023-04-24T11:27:49;11.80;99.90
19665;DHT22;9980;51.020;7.772;2023-04-24T11:30:20;11.90;99.90
19665;DHT22;9980;51.020;7.772;2023-04-24T11:32:51;12.00;99.90
19665;DHT22;9980;51.020;7.772;2023-04-24T11:35:22;12.10;99.90
19665;DHT22;9980;51.020;7.772;2023-04-24T11:37:53;12.20;99.90
19665;DHT22;9980;51.020;7.772;2023-04-24T11:40:23;12.30;99.90
19665;DHT22;9980;51.020;7.772;2023-04-24T11:42:52;12.40;99.90
19665;DHT22;9980;51.020;7.772;2023-04-24T11:45:23;12.50;99.90
19665;DHT22;9980;51.020;7.772;2023-04-24T11:47:51;12.60;99.90
19665;DHT22;9980;51.020;7.772;2023-04-24T11:50:22;12.60;99.90
19665;DHT22;9980;51.020;7.772;2023-04-24T11:52:51;12.70;99.90
19665;DHT22;9980;51.020;7.772;2023-04-24T11:57:55;12.70;99.90
19665;DHT22;9980;51.020;7.772;2023-04-24T12:00:31;12.70;99.90
19665;DHT22;9980;51.020;7.772;2023-04-24T12:03:10;12.70;99.90
19665;DHT22;9980;51.020;7.772;2023-04-24T12:05:38;12.70;99.90
19665;DHT22;9980;51.020;7.772;2023-04-24T12:08:06;12.80;99.90
19665;DHT22;9980;51.020;7.772;2023-04-24T12:10:33;12.80;99.90
19665;DHT22;9980;51.020;7.772;2023-04-24T12:13:00;12.80;99.90
19665;DHT22;9980;51.020;7.772;2023-04-24T12:15:27;12.90;99.90
19665;DHT22;9980;51.020;7.772;2023-04-24T12:17:55;13.00;99.90
19665;DHT22;9980;51.020;7.772;2023-04-24T12:20:28;13.00;99.90
19665;DHT22;9980;51.020;7.772;2023-04-24T12:22:59;13.10;99.90
19665;DHT22;9980;51.020;7.772;2023-04-24T12:25:31;13.20;99.90
19665;DHT22;9980;51.020;7.772;2023-04-24T12:30:46;13.40;99.90
19665;DHT22;9980;51.020;7.772;2023-04-24T12:33:18;13.50;99.90
19665;DHT22;9980;51.020;7.772;2023-04-24T12:35:46;13.70;99.90
19665;DHT22;9980;51.020;7.772;2023-04-24T12:38:15;13.70;99.90
19665;DHT22;9980;51.020;7.772;2023-04-24T12:40:43;13.80;99.90
19665;DHT22;9980;51.020;7.772;2023-04-24T12:43:18;13.90;99.90
19665;DHT22;9980;51.020;7.772;2023-04-24T12:45:48;14.00;99.90
19665;DHT22;9980;51.020;7.772;2023-04-24T12:48:14;14.20;99.90
19665;DHT22;9980;51.020;7.772;2023-04-24T12:50:41;14.30;99.90
19665;DHT22;9980;51.020;7.772;2023-04-24T12:53:12;14.30;99.90
19665;DHT22;9980;51.020;7.772;2023-04-24T12:55:38;14.40;99.40
19665;DHT22;9980;51.020;7.772;2023-04-24T12:58:04;14.40;99.10
19665;DHT22;9980;51.020;7.772;2023-04-24T13:00:31;14.50;98.90
19665;DHT22;9980;51.020;7.772;2023-04-24T13:02:58;14.50;98.50
19665;DHT22;9980;51.020;7.772;2023-04-24T13:05:24;14.50;98.40
19665;DHT22;9980;51.020;7.772;2023-04-24T13:07:51;14.40;98.50
19665;DHT22;9980;51.020;7.772;2023-04-24T13:10:17;14.40;98.40
19665;DHT22;9980;51.020;7.772;2023-04-24T13:12:45;14.40;98.20
19665;DHT22;9980;51.020;7.772;2023-04-24T13:15:12;14.30;98.30
19665;DHT22;9980;51.020;7.772;2023-04-24T13:17:39;14.30;98.20
19665;DHT22;9980;51.020;7.772;2023-04-24T13:20:05;14.20;98.30
19665;DHT22;9980;51.020;7.772;2023-04-24T13:22:32;14.20;98.50
19665;DHT22;9980;51.020;7.772;2023-04-24T13:24:58;14.10;98.30
19665;DHT22;9980;51.020;7.772;2023-04-24T13:27:25;14.10;98.40
19665;DHT22;9980;51.020;7.772;2023-04-24T13:29:51;14.10;98.40
19665;DHT22;9980;51.020;7.772;2023-04-24T13:32:18;14.00;98.50
19665;DHT22;9980;51.020;7.772;2023-04-24T13:34:44;14.00;98.20
19665;DHT22;9980;51.020;7.772;2023-04-24T13:37:11;14.00;98.50
19665;DHT22;9980;51.020;7.772;2023-04-24T13:39:37;14.00;98.30
19665;DHT22;9980;51.020;7.772;2023-04-24T13:42:04;14.10;98.80
19665;DHT22;9980;51.020;7.772;2023-04-24T13:44:31;14.10;98.80
19665;DHT22;9980;51.020;7.772;2023-04-24T13:46:57;14.20;99.10
19665;DHT22;9980;51.020;7.772;2023-04-24T13:49:24;14.30;98.70
19665;DHT22;9980;51.020;7.772;2023-04-24T13:51:52;14.40;98.40
19665;DHT22;9980;51.020;7.772;2023-04-24T13:54:19;14.50;98.20
19665;DHT22;9980;51.020;7.772;2023-04-24T13:56:46;14.50;97.90
19665;DHT22;9980;51.020;7.772;2023-04-24T13:59:13;14.60;97.90
19665;DHT22;9980;51.020;7.772;2023-04-24T14:01:39;14.70;97.80
19665;DHT22;9980;51.020;7.772;2023-04-24T14:04:06;14.70;98.00
19665;DHT22;9980;51.020;7.772;2023-04-24T14:06:32;14.80;98.20
19665;DHT22;9980;51.020;7.772;2023-04-24T14:08:58;14.90;97.70
19665;DHT22;9980;51.020;7.772;2023-04-24T14:11:26;14.90;97.80
19665;DHT22;9980;51.020;7.772;2023-04-24T14:13:54;15.00;97.50
19665;DHT22;9980;51.020;7.772;2023-04-24T14:16:22;15.10;97.10
19665;DHT22;9980;51.020;7.772;2023-04-24T14:18:48;15.10;96.90
19665;DHT22;9980;51.020;7.772;2023-04-24T14:21:14;15.20;96.30
19665;DHT22;9980;51.020;7.772;2023-04-24T14:23:42;15.10;96.20
19665;DHT22;9980;51.020;7.772;2023-04-24T14:26:09;15.10;95.90
19665;DHT22;9980;51.020;7.772;2023-04-24T14:28:35;15.10;95.80
19665;DHT22;9980;51.020;7.772;2023-04-24T14:31:01;15.10;95.70
19665;DHT22;9980;51.020;7.772;2023-04-24T14:33:28;15.00;95.30
19665;DHT22;9980;51.020;7.772;2023-04-24T14:35:54;15.00;95.50
19665;DHT22;9980;51.020;7.772;2023-04-24T14:38:21;15.00;95.30
19665;DHT22;9980;51.020;7.772;2023-04-24T14:40:47;15.00;95.20
19665;DHT22;9980;51.020;7.772;2023-04-24T14:43:17;14.90;95.10
19665;DHT22;9980;51.020;7.772;2023-04-24T14:45:43;14.90;94.90
19665;DHT22;9980;51.020;7.772;2023-04-24T14:48:09;14.80;95.00
19665;DHT22;9980;51.020;7.772;2023-04-24T14:50:37;14.80;95.10
19665;DHT22;9980;51.020;7.772;2023-04-24T14:53:03;14.70;94.70
19665;DHT22;9980;51.020;7.772;2023-04-24T14:55:29;14.60;94.90
19665;DHT22;9980;51.020;7.772;2023-04-24T14:57:56;14.50;95.00
19665;DHT22;9980;51.020;7.772;2023-04-24T15:00:22;14.40;95.20
19665;DHT22;9980;51.020;7.772;2023-04-24T15:02:51;14.40;95.00
19665;DHT22;9980;51.020;7.772;2023-04-24T15:05:18;14.40;94.90
19665;DHT22;9980;51.020;7.772;2023-04-24T15:07:45;14.30;94.50
19665;DHT22;9980;51.020;7.772;2023-04-24T15:10:12;14.20;94.80
19665;DHT22;9980;51.020;7.772;2023-04-24T15:12:38;14.20;95.30
19665;DHT22;9980;51.020;7.772;2023-04-24T15:15:05;14.20;95.40
19665;DHT22;9980;51.020;7.772;2023-04-24T15:17:32;14.20;95.40
19665;DHT22;9980;51.020;7.772;2023-04-24T15:19:58;14.30;95.20
19665;DHT22;9980;51.020;7.772;2023-04-24T15:22:25;14.30;94.80
19665;DHT22;9980;51.020;7.772;2023-04-24T15:24:51;14.30;95.10
19665;DHT22;9980;51.020;7.772;2023-04-24T15:27:18;14.30;95.00
19665;DHT22;9980;51.020;7.772;2023-04-24T15:29:44;14.40;95.00
19665;DHT22;9980;51.020;7.772;2023-04-24T15:32:10;14.40;94.50
19665;DHT22;9980;51.020;7.772;2023-04-24T15:34:37;14.30;94.30
19665;DHT22;9980;51.020;7.772;2023-04-24T15:37:04;14.30;94.30
19665;DHT22;9980;51.020;7.772;2023-04-24T15:39:30;14.30;94.40
19665;DHT22;9980;51.020;7.772;2023-04-24T15:41:56;14.30;94.20
19665;DHT22;9980;51.020;7.772;2023-04-24T15:44:23;14.20;94.10
19665;DHT22;9980;51.020;7.772;2023-04-24T15:46:49;14.20;94.20
19665;DHT22;9980;51.020;7.772;2023-04-24T15:49:18;14.20;94.60
19665;DHT22;9980;51.020;7.772;2023-04-24T15:51:44;14.20;94.70
19665;DHT22;9980;51.020;7.772;2023-04-24T15:54:11;14.20;94.40
19665;DHT22;9980;51.020;7.772;2023-04-24T15:56:37;14.20;94.30
19665;DHT22;9980;51.020;7.772;2023-04-24T15:59:03;14.20;94.40
19665;DHT22;9980;51.020;7.772;2023-04-24T16:01:30;14.20;94.40